TimeCDT,TemperatureF,Dew PointF,Humidity,Sea Level PressureIn,VisibilityMPH,Wind Direction,Wind SpeedMPH,Gust SpeedMPH,PrecipitationIn,Events,Conditions,WindDirDegrees,DateUTC
12:15 AM,42.8,35.6,76,30.23,4.0,Calm,Calm,-,N/A,,Haze,0,2012-10-28 05:15:00
12:35 AM,42.8,35.6,76,30.24,3.0,Calm,Calm,-,N/A,,Haze,0,2012-10-28 05:35:00
12:55 AM,42.8,35.6,76,30.24,3.0,Calm,Calm,-,N/A,,Haze,0,2012-10-28 05:55:00
1:15 AM,41.0,33.8,76,30.24,5.0,Calm,Calm,-,N/A,,Haze,0,2012-10-28 06:15:00
1:35 AM,41.0,33.8,76,30.24,5.0,Calm,Calm,-,N/A,,Haze,0,2012-10-28 06:35:00
1:55 AM,41.0,33.8,76,30.24,5.0,Calm,Calm,-,N/A,,Haze,0,2012-10-28 06:55:00
2:15 AM,41.0,33.8,76,30.24,5.0,Calm,Calm,-,N/A,,Haze,0,2012-10-28 07:15:00
2:35 AM,39.2,33.8,81,30.24,5.0,Calm,Calm,-,N/A,,Haze,0,2012-10-28 07:35:00
2:55 AM,37.4,33.8,87,30.23,5.0,Calm,Calm,-,N/A,,Clear,0,2012-10-28 07:55:00
3:15 AM,39.2,33.8,81,30.23,3.0,Calm,Calm,-,N/A,,Haze,0,2012-10-28 08:15:00
3:35 AM,37.4,33.8,87,30.23,3.0,Calm,Calm,-,N/A,,Haze,0,2012-10-28 08:35:00
3:55 AM,39.2,33.8,81,30.23,3.0,Calm,Calm,-,N/A,,Haze,0,2012-10-28 08:55:00
4:15 AM,37.4,33.8,87,30.23,5.0,Calm,Calm,-,N/A,,Haze,0,2012-10-28 09:15:00
4:35 AM,37.4,33.8,87,30.23,3.0,Calm,Calm,-,N/A,,Haze,0,2012-10-28 09:35:00
4:55 AM,37.4,33.8,87,30.23,2.5,Calm,Calm,-,N/A,,Clear,0,2012-10-28 09:55:00
5:15 AM,37.4,33.8,87,30.23,3.0,Calm,Calm,-,N/A,,Clear,0,2012-10-28 10:15:00
5:35 AM,37.4,33.8,87,30.24,5.0,Calm,Calm,-,N/A,,Clear,0,2012-10-28 10:35:00
5:55 AM,37.4,33.8,87,30.24,5.0,Calm,Calm,-,N/A,,Clear,0,2012-10-28 10:55:00
6:15 AM,37.4,33.8,87,30.24,4.0,Calm,Calm,-,N/A,,Clear,0,2012-10-28 11:15:00
6:35 AM,37.4,33.8,87,30.24,3.0,Calm,Calm,-,N/A,,Haze,0,2012-10-28 11:35:00
6:55 AM,37.4,33.8,87,30.25,2.5,Calm,Calm,-,N/A,,Clear,0,2012-10-28 11:55:00
7:15 AM,37.4,32.0,81,30.25,3.0,Calm,Calm,-,N/A,,Haze,0,2012-10-28 12:15:00
7:35 AM,35.6,32.0,87,30.26,3.0,Calm,Calm,-,N/A,,Clear,0,2012-10-28 12:35:00
7:55 AM,37.4,33.8,87,30.26,2.5,Calm,Calm,-,N/A,,Clear,0,2012-10-28 12:55:00
8:15 AM,37.4,33.8,87,30.27,3.0,Calm,Calm,-,N/A,,Clear,0,2012-10-28 13:15:00
8:55 AM,41.0,35.6,81,30.29,1.5,Calm,Calm,-,N/A,,Haze,0,2012-10-28 13:55:00
9:15 AM,42.8,33.8,70,30.29,1.5,Calm,Calm,-,N/A,,Haze,0,2012-10-28 14:15:00
9:55 AM,46.4,33.8,62,30.30,1.0,Calm,Calm,-,N/A,,Haze,0,2012-10-28 14:55:00
10:15 AM,48.2,35.6,62,30.30,7.0,Calm,Calm,-,N/A,,Clear,0,2012-10-28 15:15:00
10:35 AM,50.0,35.6,58,30.30,9.0,Calm,Calm,-,N/A,,Clear,0,2012-10-28 15:35:00
10:55 AM,51.8,33.8,50,30.30,5.0,Calm,Calm,-,N/A,,Haze,0,2012-10-28 15:55:00
11:15 AM,53.6,32.0,44,30.30,1.0,NNE,4.6,-,N/A,,Haze,20,2012-10-28 16:15:00
11:35 AM,53.6,32.0,44,30.30,3.0,Calm,Calm,-,N/A,,Haze,0,2012-10-28 16:35:00
11:55 AM,55.4,32.0,41,30.29,3.0,North,5.8,-,N/A,,Haze,350,2012-10-28 16:55:00
12:15 PM,55.4,32.0,41,30.28,3.0,North,4.6,-,N/A,,Haze,360,2012-10-28 17:15:00
12:35 PM,57.2,30.2,36,30.28,10.0,NW,8.1,-,N/A,,Clear,310,2012-10-28 17:35:00
12:55 PM,57.2,30.2,36,30.27,10.0,NW,9.2,-,N/A,,Clear,310,2012-10-28 17:55:00
1:15 PM,57.2,30.2,36,30.26,10.0,NNW,12.7,16.1,N/A,,Clear,330,2012-10-28 18:15:00
1:35 PM,59.0,28.4,31,30.25,10.0,North,8.1,-,N/A,,Clear,10,2012-10-28 18:35:00
1:55 PM,60.8,30.2,31,30.24,10.0,North,8.1,-,N/A,,Clear,350,2012-10-28 18:55:00
2:15 PM,60.8,26.6,27,30.24,9.0,North,8.1,-,N/A,,Clear,360,2012-10-28 19:15:00
2:35 PM,60.8,28.4,29,30.23,7.0,North,8.1,-,N/A,,Clear,350,2012-10-28 19:35:00
2:55 PM,60.8,26.6,27,30.22,10.0,North,6.9,-,N/A,,Clear,10,2012-10-28 19:55:00
3:15 PM,62.6,26.6,26,30.21,10.0,North,5.8,18.4,N/A,,Clear,350,2012-10-28 20:15:00
3:35 PM,62.6,28.4,27,30.21,7.0,ENE,4.6,-,N/A,,Clear,60,2012-10-28 20:35:00
3:55 PM,62.6,26.6,26,30.21,10.0,North,5.8,-,N/A,,Clear,350,2012-10-28 20:55:00
4:15 PM,62.6,26.6,26,30.21,10.0,Calm,Calm,-,N/A,,Clear,0,2012-10-28 21:15:00
4:35 PM,62.6,26.6,26,30.20,10.0,North,8.1,-,N/A,,Clear,350,2012-10-28 21:35:00
4:55 PM,62.6,26.6,26,30.20,10.0,North,3.5,-,N/A,,Clear,360,2012-10-28 21:55:00
5:15 PM,62.6,26.6,26,30.20,10.0,NE,4.6,-,N/A,,Clear,50,2012-10-28 22:15:00
5:35 PM,60.8,26.6,27,30.19,10.0,Calm,Calm,-,N/A,,Clear,0,2012-10-28 22:35:00
5:55 PM,60.8,26.6,27,30.20,10.0,NNE,3.5,-,N/A,,Clear,20,2012-10-28 22:55:00
6:15 PM,59.0,28.4,31,30.20,10.0,Calm,Calm,-,N/A,,Clear,0,2012-10-28 23:15:00
6:35 PM,53.6,32.0,44,30.20,10.0,Calm,Calm,-,N/A,,Clear,0,2012-10-28 23:35:00
6:55 PM,50.0,33.8,54,30.20,10.0,Calm,Calm,-,N/A,,Clear,0,2012-10-28 23:55:00
7:15 PM,48.2,33.8,58,30.21,10.0,Calm,Calm,-,N/A,,Clear,0,2012-10-29 00:15:00
7:35 PM,46.4,33.8,62,30.21,10.0,Calm,Calm,-,N/A,,Clear,0,2012-10-29 00:35:00
7:55 PM,46.4,35.6,66,30.21,10.0,Calm,Calm,-,N/A,,Clear,0,2012-10-29 00:55:00
8:15 PM,44.6,35.6,71,30.22,10.0,Calm,Calm,-,N/A,,Clear,0,2012-10-29 01:15:00
8:35 PM,44.6,35.6,71,30.22,10.0,Calm,Calm,-,N/A,,Clear,0,2012-10-29 01:35:00
8:55 PM,44.6,35.6,71,30.23,10.0,Calm,Calm,-,N/A,,Clear,0,2012-10-29 01:55:00
9:15 PM,42.8,33.8,70,30.23,10.0,Calm,Calm,-,N/A,,Clear,0,2012-10-29 02:15:00
9:55 PM,42.8,35.6,76,30.24,10.0,Calm,Calm,-,N/A,,Clear,0,2012-10-29 02:55:00
10:15 PM,42.8,35.6,76,30.24,10.0,Calm,Calm,-,N/A,,Clear,0,2012-10-29 03:15:00
10:35 PM,41.0,35.6,81,30.24,10.0,Calm,Calm,-,N/A,,Clear,0,2012-10-29 03:35:00
10:55 PM,39.2,35.6,87,30.25,10.0,Calm,Calm,-,N/A,,Clear,0,2012-10-29 03:55:00
11:15 PM,39.2,35.6,87,30.25,10.0,Calm,Calm,-,N/A,,Clear,0,2012-10-29 04:15:00
11:55 PM,39.2,33.8,81,30.25,10.0,Calm,Calm,-,N/A,,Clear,0,2012-10-29 04:55:00